createdAt,value
2022-07-27T00:00:27.315Z,1006.05
2022-07-27T00:03:27.290Z,1006.09
2022-07-27T00:06:27.304Z,1006.03
2022-07-27T00:09:27.294Z,1006.08
2022-07-27T00:12:27.305Z,1006.03
2022-07-27T00:15:27.294Z,1006.1
2022-07-27T00:18:27.294Z,1006.11
2022-07-27T00:21:27.300Z,1006.12
2022-07-27T00:24:27.298Z,1006.14
2022-07-27T00:27:27.305Z,1006.16
2022-07-27T00:30:27.319Z,1006.16
2022-07-27T00:33:27.295Z,1006.13
2022-07-27T00:36:27.296Z,1006.1
2022-07-27T00:39:27.289Z,1006.12
2022-07-27T00:42:27.299Z,1006.15
2022-07-27T00:45:27.291Z,1006.17
2022-07-27T00:48:27.397Z,1006.18
2022-07-27T00:51:27.307Z,1006.13
2022-07-27T00:54:27.293Z,1006.09
2022-07-27T00:57:27.294Z,1006.15
2022-07-27T01:00:27.307Z,1006.14
2022-07-27T01:03:29.411Z,1006.13
2022-07-27T01:06:27.489Z,1006.15
2022-07-27T01:09:27.294Z,1006.14
2022-07-27T01:12:27.292Z,1006.15
2022-07-27T01:15:27.303Z,1006.18
2022-07-27T01:18:27.304Z,1006.19
2022-07-27T01:21:27.304Z,1006.2
2022-07-27T01:24:27.302Z,1006.2
2022-07-27T01:27:27.328Z,1006.16
2022-07-27T01:30:27.306Z,1006.21
2022-07-27T01:33:27.305Z,1006.22
2022-07-27T01:36:27.301Z,1006.22
2022-07-27T01:39:27.305Z,1006.21
2022-07-27T01:42:27.307Z,1006.15
2022-07-27T01:45:27.301Z,1006.15
2022-07-27T01:48:27.306Z,1006.19
2022-07-27T01:51:27.306Z,1006.19
2022-07-27T01:54:27.316Z,1006.21
2022-07-27T01:57:27.305Z,1006.21
2022-07-27T02:00:27.341Z,1006.21
2022-07-27T02:03:27.312Z,1006.2
2022-07-27T02:06:27.311Z,1006.17
2022-07-27T02:09:27.304Z,1006.15
2022-07-27T02:12:27.315Z,1006.12
2022-07-27T02:15:27.442Z,1006.14
2022-07-27T02:18:33.786Z,1006.11
2022-07-27T02:21:27.311Z,1006.09
2022-07-27T02:24:27.316Z,1006.09
2022-07-27T02:27:27.331Z,1006.11
2022-07-27T02:30:27.313Z,1006.13
2022-07-27T02:33:27.327Z,1006.12
2022-07-27T02:36:27.318Z,1006.13
2022-07-27T02:39:27.314Z,1006.13
2022-07-27T02:42:27.321Z,1006.09
2022-07-27T02:45:27.327Z,1006.09
2022-07-27T02:48:27.337Z,1006.08
2022-07-27T02:51:27.330Z,1006.08
2022-07-27T02:54:27.335Z,1006.08
2022-07-27T02:57:27.326Z,1006.04
2022-07-27T03:00:27.326Z,1006.03
2022-07-27T03:03:33.285Z,1006.11
2022-07-27T03:06:27.330Z,1006.11
2022-07-27T03:09:28.711Z,1006.09
2022-07-27T03:12:27.319Z,1006.1
2022-07-27T03:15:27.451Z,1006.03
2022-07-27T03:18:27.325Z,1006.03
2022-07-27T03:21:27.328Z,1006.06
2022-07-27T03:24:27.346Z,1006.09
2022-07-27T03:27:27.338Z,1006.02
2022-07-27T03:30:27.331Z,1006.05
2022-07-27T03:33:27.332Z,1006.05
2022-07-27T03:36:27.333Z,1006.11
2022-07-27T03:39:27.344Z,1006.16
2022-07-27T03:42:27.326Z,1006.12
2022-07-27T03:45:27.326Z,1006.15
2022-07-27T03:48:27.326Z,1006.19
2022-07-27T03:51:27.332Z,1006.22
2022-07-27T03:54:27.335Z,1006.24
2022-07-27T03:57:27.345Z,1006.2
2022-07-27T04:00:27.337Z,1006.21
2022-07-27T04:03:27.341Z,1006.23
2022-07-27T04:06:27.334Z,1006.29
2022-07-27T04:09:27.349Z,1006.33
2022-07-27T04:12:27.333Z,1006.37
2022-07-27T04:15:27.344Z,1006.37
2022-07-27T04:18:27.341Z,1006.34
2022-07-27T04:21:27.496Z,1006.33
2022-07-27T04:24:27.342Z,1006.34
2022-07-27T04:27:27.339Z,1006.34
2022-07-27T04:30:27.378Z,1006.37
2022-07-27T04:33:27.342Z,1006.36
2022-07-27T04:36:27.344Z,1006.34
2022-07-27T04:39:27.349Z,1006.28
2022-07-27T04:42:27.343Z,1006.24
2022-07-27T04:45:27.342Z,1006.29
2022-07-27T04:48:27.348Z,1006.36
2022-07-27T04:51:30.032Z,1006.42
2022-07-27T04:54:27.370Z,1006.37
2022-07-27T04:57:27.350Z,1006.38
2022-07-27T05:00:27.359Z,1006.49
2022-07-27T05:03:27.352Z,1006.44
2022-07-27T05:06:27.357Z,1006.46
2022-07-27T05:09:27.351Z,1006.47
2022-07-27T05:12:27.359Z,1006.52
2022-07-27T05:15:27.358Z,1006.54
2022-07-27T05:18:27.353Z,1006.64
2022-07-27T05:21:27.402Z,1006.61
2022-07-27T05:24:27.363Z,1006.64
2022-07-27T05:27:27.375Z,1006.66
2022-07-27T05:30:27.363Z,1006.71
2022-07-27T05:33:27.365Z,1006.71
2022-07-27T05:36:27.358Z,1006.75
2022-07-27T05:39:27.375Z,1006.82
2022-07-27T05:42:27.353Z,1006.84
2022-07-27T05:45:27.409Z,1006.83
2022-07-27T05:48:27.367Z,1006.84
2022-07-27T05:51:27.365Z,1006.89
2022-07-27T05:54:27.390Z,1006.9
2022-07-27T05:57:27.370Z,1006.88
2022-07-27T06:00:27.362Z,1006.87
2022-07-27T06:03:27.437Z,1006.9
2022-07-27T06:06:27.361Z,1006.96
2022-07-27T06:09:27.373Z,1006.98
2022-07-27T06:12:27.683Z,1007.01
2022-07-27T06:15:27.371Z,1007.03
2022-07-27T06:18:27.367Z,1007.02
2022-07-27T06:21:27.369Z,1007.03
2022-07-27T06:24:27.368Z,1007.05
2022-07-27T06:27:29.665Z,1007.07
2022-07-27T06:30:27.392Z,1007.12
2022-07-27T06:33:27.365Z,1007.11
2022-07-27T06:36:27.371Z,1007.08
2022-07-27T06:39:27.372Z,1007.15
2022-07-27T06:42:27.356Z,1007.16
2022-07-27T06:45:27.367Z,1007.15
2022-07-27T06:48:27.376Z,1007.18
2022-07-27T06:51:27.375Z,1007.2
2022-07-27T06:54:27.381Z,1007.26
2022-07-27T06:57:27.380Z,1007.26
2022-07-27T07:00:27.450Z,1007.24
2022-07-27T07:03:27.409Z,1007.26
2022-07-27T07:06:27.385Z,1007.28
2022-07-27T07:09:27.373Z,1007.29
2022-07-27T07:12:27.375Z,1007.26
2022-07-27T07:15:27.381Z,1007.22
2022-07-27T07:18:27.372Z,1007.21
2022-07-27T07:21:27.375Z,1007.25
2022-07-27T07:24:27.366Z,1007.26
2022-07-27T07:27:27.373Z,1007.25
2022-07-27T07:30:27.366Z,1007.29
2022-07-27T07:33:27.376Z,1007.32
2022-07-27T07:36:27.377Z,1007.34
2022-07-27T07:39:31.275Z,1007.31
2022-07-27T07:42:27.381Z,1007.34
2022-07-27T07:45:27.377Z,1007.32
2022-07-27T07:48:27.375Z,1007.36
2022-07-27T07:51:27.377Z,1007.35
2022-07-27T07:54:27.387Z,1007.32
2022-07-27T07:57:27.379Z,1007.32
2022-07-27T08:00:27.376Z,1007.29
2022-07-27T08:03:27.405Z,1007.36
2022-07-27T08:06:27.375Z,1007.33
2022-07-27T08:09:27.372Z,1007.33
2022-07-27T08:12:27.394Z,1007.36
2022-07-27T08:15:29.838Z,1007.37
2022-07-27T08:18:27.379Z,1007.41
2022-07-27T08:21:27.384Z,1007.41
2022-07-27T08:24:27.380Z,1007.41
2022-07-27T08:27:27.384Z,1007.38
2022-07-27T08:30:27.382Z,1007.38
2022-07-27T08:33:27.381Z,1007.36
2022-07-27T08:36:27.372Z,1007.4
2022-07-27T08:42:27.390Z,1007.36
2022-07-27T08:45:27.392Z,1007.35
2022-07-27T08:48:27.397Z,1007.33
2022-07-27T08:51:27.381Z,1007.29
2022-07-27T08:54:27.385Z,1007.33
2022-07-27T08:57:27.396Z,1007.36
2022-07-27T09:00:27.395Z,1007.35
2022-07-27T09:03:27.437Z,1007.34
2022-07-27T09:06:27.395Z,1007.35
2022-07-27T09:09:27.390Z,1007.38
2022-07-27T09:12:27.398Z,1007.35
2022-07-27T09:15:34.107Z,1007.37
2022-07-27T09:18:27.446Z,1007.36
2022-07-27T09:21:27.399Z,1007.39
2022-07-27T09:24:45.967Z,1007.41
2022-07-27T09:27:27.401Z,1007.37
2022-07-27T09:30:27.403Z,1007.33
2022-07-27T09:33:27.404Z,1007.34
2022-07-27T09:36:27.400Z,1007.29
2022-07-27T09:39:27.406Z,1007.34
2022-07-27T09:43:03.708Z,1007.29
2022-07-27T09:45:27.415Z,1007.37
2022-07-27T09:48:27.410Z,1007.33
2022-07-27T09:51:58.601Z,1007.31
2022-07-27T09:54:27.407Z,1007.29
2022-07-27T09:57:27.424Z,1007.38
2022-07-27T10:00:27.480Z,1007.3
2022-07-27T10:03:27.408Z,1007.33
2022-07-27T10:06:27.414Z,1007.25
2022-07-27T10:09:27.412Z,1007.2
2022-07-27T10:12:27.429Z,1007.22
2022-07-27T10:15:27.542Z,1007.26
2022-07-27T10:18:27.414Z,1007.3
2022-07-27T10:21:27.415Z,1007.31
2022-07-27T10:24:27.409Z,1007.33
2022-07-27T10:27:27.419Z,1007.29
2022-07-27T10:30:27.785Z,1007.3
2022-07-27T10:33:27.419Z,1007.3
2022-07-27T10:36:27.418Z,1007.24
2022-07-27T10:39:27.419Z,1007.28
2022-07-27T10:42:27.446Z,1007.31
2022-07-27T10:45:27.429Z,1007.32
2022-07-27T10:48:27.424Z,1007.29
2022-07-27T10:51:27.419Z,1007.37
2022-07-27T10:54:27.768Z,1007.32
2022-07-27T10:57:27.433Z,1007.29
2022-07-27T11:00:27.429Z,1007.33
2022-07-27T11:03:27.428Z,1007.34
2022-07-27T11:06:34.907Z,1007.37
2022-07-27T11:12:27.431Z,1007.24
2022-07-27T11:15:27.430Z,1007.28
2022-07-27T11:18:28.200Z,1007.3
2022-07-27T11:21:27.433Z,1007.24
2022-07-27T11:24:27.431Z,1007.21
2022-07-27T11:27:27.433Z,1007.16
2022-07-27T11:30:27.643Z,1007.15
2022-07-27T11:33:27.436Z,1007.08
2022-07-27T11:36:27.437Z,1007.08
2022-07-27T11:39:54.637Z,1007.08
2022-07-27T11:42:27.442Z,1007.14
2022-07-27T11:45:27.492Z,1007.09
2022-07-27T11:48:39.088Z,1007.05
2022-07-27T11:51:27.434Z,1007.02
2022-07-27T11:54:27.447Z,1007.03
2022-07-27T11:57:27.441Z,1007.01
2022-07-27T12:00:27.442Z,1007.03
2022-07-27T12:03:32.179Z,1006.93
2022-07-27T12:06:27.444Z,1006.93
2022-07-27T12:09:27.451Z,1006.97
2022-07-27T12:12:27.443Z,1006.95
2022-07-27T12:15:45.051Z,1006.96
2022-07-27T12:18:27.450Z,1006.93
2022-07-27T12:21:27.440Z,1006.96
2022-07-27T12:24:27.444Z,1006.89
2022-07-27T12:27:27.446Z,1006.86
2022-07-27T12:30:27.498Z,1006.87
2022-07-27T12:33:27.444Z,1006.88
2022-07-27T12:36:27.451Z,1006.91
2022-07-27T12:39:27.437Z,1006.95
2022-07-27T12:42:27.449Z,1006.95
2022-07-27T12:45:27.467Z,1006.97
2022-07-27T12:48:27.462Z,1006.95
2022-07-27T12:51:27.449Z,1006.88
2022-07-27T12:54:27.448Z,1006.95
2022-07-27T12:57:46.557Z,1006.88
2022-07-27T13:00:32.805Z,1006.85
2022-07-27T13:03:27.443Z,1006.8
2022-07-27T13:06:27.456Z,1006.82
2022-07-27T13:10:01.691Z,1006.78
2022-07-27T13:12:27.459Z,1006.73
2022-07-27T13:15:27.452Z,1006.77
2022-07-27T13:18:27.449Z,1006.78
2022-07-27T13:21:27.757Z,1006.78
2022-07-27T13:24:27.456Z,1006.72
2022-07-27T13:27:27.450Z,1006.71
2022-07-27T13:30:27.458Z,1006.64
2022-07-27T13:33:27.453Z,1006.6
2022-07-27T13:36:27.457Z,1006.64
2022-07-27T13:39:27.471Z,1006.61
2022-07-27T13:42:27.446Z,1006.52
2022-07-27T13:45:27.543Z,1006.44
2022-07-27T13:48:27.446Z,1006.43
2022-07-27T13:51:27.455Z,1006.42
2022-07-27T13:54:27.463Z,1006.4
2022-07-27T13:57:27.451Z,1006.43
2022-07-27T14:00:27.455Z,1006.44
2022-07-27T14:03:27.450Z,1006.49
2022-07-27T14:06:27.459Z,1006.47
2022-07-27T14:09:27.456Z,1006.46
2022-07-27T14:12:27.447Z,1006.46
2022-07-27T14:15:27.458Z,1006.49
2022-07-27T14:18:27.490Z,1006.47
2022-07-27T14:21:27.456Z,1006.52
2022-07-27T14:24:27.462Z,1006.56
2022-07-27T14:27:33.644Z,1006.49
2022-07-27T14:30:27.467Z,1006.42
2022-07-27T14:33:29.929Z,1006.44
2022-07-27T14:36:27.503Z,1006.46
2022-07-27T14:39:27.464Z,1006.5
2022-07-27T14:42:27.746Z,1006.52
2022-07-27T14:45:44.177Z,1006.58
2022-07-27T14:48:42.477Z,1006.58
2022-07-27T14:51:27.466Z,1006.48
2022-07-27T14:54:27.462Z,1006.46
2022-07-27T14:57:27.458Z,1006.46
2022-07-27T15:00:27.480Z,1006.4
2022-07-27T15:03:27.456Z,1006.39
2022-07-27T15:06:27.464Z,1006.35
2022-07-27T15:09:27.462Z,1006.37
2022-07-27T15:12:27.506Z,1006.41
2022-07-27T15:15:27.478Z,1006.4
2022-07-27T15:18:27.478Z,1006.41
2022-07-27T15:21:27.483Z,1006.4
2022-07-27T15:24:27.475Z,1006.37
2022-07-27T15:27:27.468Z,1006.37
2022-07-27T15:30:27.478Z,1006.29
2022-07-27T15:33:27.484Z,1006.31
2022-07-27T15:36:32.699Z,1006.3
2022-07-27T15:39:27.478Z,1006.26
2022-07-27T15:42:27.475Z,1006.21
2022-07-27T15:45:27.478Z,1006.21
2022-07-27T15:48:27.488Z,1006.12
2022-07-27T15:51:27.485Z,1006.11
2022-07-27T15:54:30.162Z,1006.04
2022-07-27T15:57:27.483Z,1006.05
2022-07-27T16:00:27.524Z,1006.06
2022-07-27T16:03:27.554Z,1006.07
2022-07-27T16:06:27.487Z,1006.03
2022-07-27T16:09:27.492Z,1006.03
2022-07-27T16:12:27.480Z,1006.07
2022-07-27T16:15:27.487Z,1006.01
2022-07-27T16:18:27.481Z,1005.92
2022-07-27T16:21:27.494Z,1005.94
2022-07-27T16:24:27.484Z,1005.98
2022-07-27T16:27:27.487Z,1005.97
2022-07-27T16:30:27.489Z,1005.95
2022-07-27T16:33:27.497Z,1005.88
2022-07-27T16:36:27.496Z,1005.89
2022-07-27T16:39:27.481Z,1005.82
2022-07-27T16:42:27.499Z,1005.78
2022-07-27T16:45:27.493Z,1005.82
2022-07-27T16:48:27.489Z,1005.86
2022-07-27T16:51:27.488Z,1005.82
2022-07-27T16:54:27.496Z,1005.81
2022-07-27T16:57:27.499Z,1005.77
2022-07-27T17:00:27.497Z,1005.73
2022-07-27T17:03:27.494Z,1005.71
2022-07-27T17:06:27.490Z,1005.66
2022-07-27T17:09:27.496Z,1005.68
2022-07-27T17:12:27.493Z,1005.66
2022-07-27T17:15:27.501Z,1005.68
2022-07-27T17:18:27.506Z,1005.69
2022-07-27T17:21:27.491Z,1005.64
2022-07-27T17:24:27.501Z,1005.64
2022-07-27T17:27:27.489Z,1005.69
2022-07-27T17:30:27.501Z,1005.67
2022-07-27T17:33:27.500Z,1005.68
2022-07-27T17:36:27.499Z,1005.71
2022-07-27T17:39:27.505Z,1005.77
2022-07-27T17:42:27.506Z,1005.78
2022-07-27T17:45:27.523Z,1005.74
2022-07-27T17:48:27.502Z,1005.76
2022-07-27T17:51:27.503Z,1005.73
2022-07-27T17:54:27.504Z,1005.74
2022-07-27T17:57:27.506Z,1005.75
2022-07-27T18:00:27.503Z,1005.79
2022-07-27T18:03:27.504Z,1005.87
2022-07-27T18:06:27.509Z,1005.84
2022-07-27T18:09:27.517Z,1005.82
2022-07-27T18:12:27.495Z,1005.84
2022-07-27T18:15:27.548Z,1005.86
2022-07-27T18:18:27.517Z,1005.86
2022-07-27T18:21:27.494Z,1005.87
2022-07-27T18:24:27.497Z,1005.9
2022-07-27T18:27:27.501Z,1005.88
2022-07-27T18:30:27.501Z,1005.89
2022-07-27T18:33:27.500Z,1005.92
2022-07-27T18:36:27.508Z,1005.92
2022-07-27T18:39:29.093Z,1006.02
2022-07-27T18:42:27.507Z,1006.02
2022-07-27T18:45:34.424Z,1006.03
2022-07-27T18:48:27.528Z,1006.05
2022-07-27T18:51:27.504Z,1006.05
2022-07-27T18:54:27.513Z,1006.16
2022-07-27T18:57:27.509Z,1006.22
2022-07-27T19:00:27.523Z,1006.29
2022-07-27T19:03:27.697Z,1006.31
2022-07-27T19:06:27.511Z,1006.33
2022-07-27T19:09:27.512Z,1006.41
2022-07-27T19:12:27.509Z,1006.37
2022-07-27T19:15:27.511Z,1006.38
2022-07-27T19:18:27.511Z,1006.4
2022-07-27T19:21:27.509Z,1006.4
2022-07-27T19:24:27.512Z,1006.47
2022-07-27T19:27:27.516Z,1006.54
2022-07-27T19:30:27.627Z,1006.58
2022-07-27T19:33:27.520Z,1006.56
2022-07-27T19:36:27.528Z,1006.61
2022-07-27T19:39:27.520Z,1006.61
2022-07-27T19:42:27.516Z,1006.6
2022-07-27T19:45:27.521Z,1006.7
2022-07-27T19:48:27.524Z,1006.75
2022-07-27T19:51:27.521Z,1006.79
2022-07-27T19:54:27.515Z,1006.78
2022-07-27T19:57:27.553Z,1006.81
2022-07-27T20:00:27.526Z,1006.88
2022-07-27T20:03:27.560Z,1006.93
2022-07-27T20:06:27.536Z,1006.94
2022-07-27T20:09:27.548Z,1006.94
2022-07-27T20:12:27.553Z,1006.99
2022-07-27T20:15:27.562Z,1007.02
2022-07-27T20:18:27.565Z,1007
2022-07-27T20:21:27.556Z,1006.97
2022-07-27T20:24:27.554Z,1006.94
2022-07-27T20:27:27.563Z,1006.92
2022-07-27T20:30:27.643Z,1006.91
2022-07-27T20:33:31.114Z,1006.97
2022-07-27T20:36:27.558Z,1006.98
2022-07-27T20:39:27.560Z,1006.97
2022-07-27T20:42:27.560Z,1006.99
2022-07-27T20:45:27.560Z,1007
2022-07-27T20:48:27.552Z,1007.03
2022-07-27T20:51:27.558Z,1007.04
2022-07-27T20:54:28.976Z,1006.98
2022-07-27T20:57:27.553Z,1006.98
2022-07-27T21:00:29.275Z,1007
2022-07-27T21:03:27.552Z,1006.98
2022-07-27T21:06:27.561Z,1007.03
2022-07-27T21:09:27.569Z,1007.05
2022-07-27T21:12:27.564Z,1007.06
2022-07-27T21:15:33.410Z,1007.05
2022-07-27T21:18:27.559Z,1007.08
2022-07-27T21:21:27.890Z,1007.09
2022-07-27T21:24:27.586Z,1007.07
2022-07-27T21:27:27.558Z,1007.07
2022-07-27T21:30:27.560Z,1007.05
2022-07-27T21:33:27.634Z,1007.01
2022-07-27T21:36:27.603Z,1007.03
2022-07-27T21:39:27.560Z,1006.99
2022-07-27T21:42:27.554Z,1007.02
2022-07-27T21:45:27.627Z,1007.04
2022-07-27T21:48:27.576Z,1007.09
2022-07-27T21:51:27.558Z,1007.12
2022-07-27T21:54:27.555Z,1007.07
2022-07-27T21:57:27.571Z,1007.1
2022-07-27T22:00:27.569Z,1007.09
2022-07-27T22:03:27.555Z,1007.1
2022-07-27T22:06:27.560Z,1007.12
2022-07-27T22:09:27.559Z,1007.13
2022-07-27T22:12:27.569Z,1007.15
2022-07-27T22:15:27.579Z,1007.22
2022-07-27T22:18:27.566Z,1007.21
2022-07-27T22:21:27.561Z,1007.22
2022-07-27T22:24:27.559Z,1007.26
2022-07-27T22:27:27.559Z,1007.25
2022-07-27T22:30:27.568Z,1007.25
2022-07-27T22:33:27.582Z,1007.34
2022-07-27T22:36:27.562Z,1007.35
2022-07-27T22:39:27.574Z,1007.37
2022-07-27T22:42:27.588Z,1007.35
2022-07-27T22:45:27.589Z,1007.35
2022-07-27T22:48:27.572Z,1007.4
2022-07-27T22:51:49.053Z,1007.42
2022-07-27T22:54:27.560Z,1007.4
2022-07-27T22:57:27.563Z,1007.42
2022-07-27T23:00:27.605Z,1007.36
2022-07-27T23:03:27.566Z,1007.43
2022-07-27T23:06:27.560Z,1007.44
2022-07-27T23:09:27.634Z,1007.46
2022-07-27T23:12:27.591Z,1007.48
2022-07-27T23:15:27.592Z,1007.42
2022-07-27T23:18:27.590Z,1007.41
2022-07-27T23:21:27.592Z,1007.39
2022-07-27T23:24:29.017Z,1007.39
2022-07-27T23:27:27.587Z,1007.37
2022-07-27T23:30:27.594Z,1007.37
2022-07-27T23:33:27.593Z,1007.41
2022-07-27T23:36:27.593Z,1007.44
2022-07-27T23:39:27.601Z,1007.48
2022-07-27T23:42:27.596Z,1007.44
2022-07-27T23:45:27.583Z,1007.46
2022-07-27T23:48:28.839Z,1007.45
2022-07-27T23:51:27.596Z,1007.43
2022-07-27T23:54:27.593Z,1007.42
2022-07-27T23:57:27.625Z,1007.34
